Time;durP1;ratioP1;P1;durP2;ratioP2;P2;SDS_P1;SDS_P2;PMS_P1;PMS_P2;Temp;Humidity;BMP_temperature;BMP_pressure;BME280_temperature;BME280_humidity;BME280_pressure;Samples;Min_cycle;Max_cycle;Signal;HPM_P1;HPM_P2
2023/05/07 00:01:15;;;;;;;1999.90;999.90;;;10.20;99.90;;;;;;5090089;28;20453;-72
2023/05/07 00:03:41;;;;;;;1999.90;999.90;;;10.30;99.90;;;;;;5087015;28;20451;-72
2023/05/07 00:06:12;;;;;;;1999.90;999.90;;;10.30;99.90;;;;;;5089297;28;20483;-71
2023/05/07 00:08:39;;;;;;;1999.90;999.90;;;10.30;99.90;;;;;;5089905;28;20456;-72
2023/05/07 00:11:05;;;;;;;1999.90;999.90;;;10.30;99.90;;;;;;5087829;28;20422;-71
2023/05/07 00:13:35;;;;;;;1999.90;999.90;;;10.30;99.90;;;;;;5089230;28;20431;-72
2023/05/07 00:16:01;;;;;;;1999.90;999.90;;;10.30;99.90;;;;;;5089814;28;20464;-72
2023/05/07 00:18:28;;;;;;;1999.90;999.90;;;10.30;99.90;;;;;;5089771;28;20487;-72
2023/05/07 00:20:55;;;;;;;1999.90;999.90;;;10.20;99.90;;;;;;5087710;28;20429;-72
2023/05/07 00:23:23;;;;;;;1999.90;999.90;;;10.20;99.90;;;;;;5089478;28;20510;-71
2023/05/07 00:25:50;;;;;;;1999.90;999.90;;;10.30;99.90;;;;;;5088937;28;20426;-72
2023/05/07 00:28:16;;;;;;;1999.90;999.90;;;10.40;99.90;;;;;;5089834;28;20781;-72
2023/05/07 00:30:43;;;;;;;1999.90;999.90;;;10.40;99.90;;;;;;5087817;28;20430;-74
2023/05/07 00:33:10;;;;;;;1999.90;999.90;;;10.30;99.90;;;;;;5088556;28;20431;-71
2023/05/07 00:35:36;;;;;;;1999.90;999.90;;;10.30;99.90;;;;;;5089323;28;20491;-71
2023/05/07 00:38:03;;;;;;;1999.90;999.90;;;10.40;99.90;;;;;;5088040;28;20434;-73
2023/05/07 00:40:31;;;;;;;1999.90;999.90;;;10.30;99.90;;;;;;5089370;28;20781;-72
2023/05/07 00:42:59;;;;;;;1999.90;999.90;;;10.20;99.90;;;;;;5088325;28;20430;-71
2023/05/07 00:45:28;;;;;;;1999.90;999.90;;;10.20;99.90;;;;;;5088610;28;20491;-72
2023/05/07 00:47:55;;;;;;;1999.90;999.90;;;10.30;99.90;;;;;;5087625;28;20920;-69
2023/05/07 00:50:22;;;;;;;1999.90;999.90;;;10.30;99.90;;;;;;5086886;28;20425;-73
2023/05/07 00:52:49;;;;;;;1999.90;999.90;;;10.30;99.90;;;;;;5085234;28;20855;-72
2023/05/07 00:55:15;;;;;;;1999.90;999.90;;;10.30;99.90;;;;;;5087723;28;20495;-68
2023/05/07 00:57:44;;;;;;;1999.90;999.90;;;10.30;99.90;;;;;;5089028;28;20479;-72
2023/05/07 01:00:12;;;;;;;1999.90;999.90;;;10.30;99.90;;;;;;5089776;28;20430;-72
2023/05/07 01:02:39;;;;;;;1999.90;999.90;;;10.30;99.90;;;;;;5086618;28;20430;-72
2023/05/07 01:05:09;;;;;;;1999.90;999.90;;;10.30;99.90;;;;;;5087005;28;20441;-72
2023/05/07 01:07:36;;;;;;;1999.90;999.90;;;10.50;99.90;;;;;;5088596;28;20479;-71
2023/05/07 01:10:04;;;;;;;1999.90;999.90;;;10.40;99.90;;;;;;5088687;28;20470;-72
2023/05/07 01:12:31;;;;;;;1999.90;999.90;;;10.40;99.90;;;;;;5086812;28;20429;-72
2023/05/07 01:14:59;;;;;;;1999.90;999.90;;;10.40;99.90;;;;;;5088834;28;20489;-71
2023/05/07 01:17:26;;;;;;;1999.90;999.90;;;10.40;99.90;;;;;;5087313;28;20921;-72
2023/05/07 01:19:53;;;;;;;1999.90;999.90;;;10.80;99.90;;;;;;5088861;28;20483;-71
2023/05/07 01:22:31;;;;;;;1999.90;999.90;;;10.40;99.90;;;;;;5086527;28;20426;-72
2023/05/07 01:24:59;;;;;;;1999.90;999.90;;;10.40;99.90;;;;;;5088647;28;20505;-72
2023/05/07 01:27:26;;;;;;;1999.90;999.90;;;10.40;99.90;;;;;;5088538;28;20425;-72
2023/05/07 01:29:52;;;;;;;1999.90;999.90;;;10.30;99.90;;;;;;5087832;28;20458;-72
2023/05/07 01:32:22;;;;;;;1999.90;999.90;;;10.40;99.90;;;;;;5086288;28;20434;-73
2023/05/07 01:34:50;;;;;;;1999.90;999.90;;;10.30;99.90;;;;;;5088054;28;20487;-72
2023/05/07 01:37:17;;;;;;;1999.90;999.90;;;10.20;99.90;;;;;;5088319;28;20426;-71
2023/05/07 01:39:45;;;;;;;1999.90;999.90;;;10.10;99.90;;;;;;5087689;28;20429;-72
2023/05/07 01:42:12;;;;;;;1999.90;999.90;;;10.30;99.90;;;;;;5085127;28;20429;-72
2023/05/07 01:44:39;;;;;;;1999.90;999.90;;;10.30;99.90;;;;;;5088348;28;20433;-72
2023/05/07 01:47:07;;;;;;;1999.90;999.90;;;10.30;99.90;;;;;;5087275;28;20433;-72
2023/05/07 01:49:33;;;;;;;1999.90;999.90;;;10.20;99.90;;;;;;5088411;28;20916;-70
2023/05/07 01:52:01;;;;;;;1999.90;999.90;;;10.20;99.90;;;;;;5085022;28;20429;-73
2023/05/07 01:54:28;;;;;;;1999.90;999.90;;;10.20;99.90;;;;;;5085456;28;22394;-72
2023/05/07 01:56:57;;;;;;;1999.90;999.90;;;10.20;99.90;;;;;;5087383;28;20430;-72
2023/05/07 01:59:24;;;;;;;1999.90;999.90;;;10.20;99.90;;;;;;5088392;28;20433;-72
2023/05/07 02:01:50;;;;;;;1999.90;999.90;;;10.10;99.90;;;;;;5087397;28;20479;-71
2023/05/07 02:04:17;;;;;;;1999.90;999.90;;;10.10;99.90;;;;;;5087802;28;20515;-74
2023/05/07 02:06:44;;;;;;;1999.90;999.90;;;10.00;99.90;;;;;;5087498;28;20433;-78
2023/05/07 02:09:10;;;;;;;1999.90;999.90;;;10.10;99.90;;;;;;5092000;28;20986;-74
2023/05/07 02:11:37;;;;;;;1999.90;999.90;;;10.10;99.90;;;;;;5088027;28;20433;-72
2023/05/07 02:14:05;;;;;;;1999.90;999.90;;;10.10;99.90;;;;;;5091833;28;20471;-69
2023/05/07 02:16:32;;;;;;;1999.90;999.90;;;10.10;99.90;;;;;;5092005;28;20867;-71
2023/05/07 02:18:58;;;;;;;1999.90;999.90;;;10.10;99.90;;;;;;5089803;28;20513;-72
2023/05/07 02:21:26;;;;;;;1999.90;999.90;;;10.10;99.90;;;;;;5092358;28;20524;-72
2023/05/07 02:23:52;;;;;;;1999.90;999.90;;;10.20;99.90;;;;;;5090552;28;20905;-71
2023/05/07 02:26:19;;;;;;;1999.90;999.90;;;10.20;99.90;;;;;;5092330;28;20435;-72
2023/05/07 02:28:46;;;;;;;1999.90;999.90;;;10.30;99.90;;;;;;5091670;28;20475;-72
2023/05/07 02:31:14;;;;;;;1999.90;999.90;;;10.20;99.90;;;;;;5092004;28;20436;-72
2023/05/07 02:33:40;;;;;;;1999.90;999.90;;;10.30;99.90;;;;;;5088321;28;20425;-72
2023/05/07 02:36:08;;;;;;;1999.90;999.90;;;10.20;99.90;;;;;;5089412;28;20841;-72
2023/05/07 02:38:35;;;;;;;1999.90;999.90;;;10.30;99.90;;;;;;5091810;28;20438;-72
2023/05/07 02:41:02;;;;;;;1999.90;999.90;;;10.10;99.90;;;;;;5091574;28;20434;-72
2023/05/07 02:43:28;;;;;;;1999.90;999.90;;;10.10;99.90;;;;;;5091446;28;20425;-72
2023/05/07 02:46:02;;;;;;;1999.90;999.90;;;10.10;99.90;;;;;;5090908;28;20436;-72
2023/05/07 02:48:30;;;;;;;1999.90;999.90;;;10.10;99.90;;;;;;5085157;28;20461;-72
2023/05/07 02:50:57;;;;;;;1999.90;999.90;;;10.00;99.90;;;;;;5091654;28;20479;-71
2023/05/07 02:53:25;;;;;;;1999.90;999.90;;;10.10;99.90;;;;;;5091698;28;20429;-72
2023/05/07 02:55:52;;;;;;;1999.90;999.90;;;10.10;99.90;;;;;;5091285;28;20486;-72
2023/05/07 02:58:19;;;;;;;1999.90;999.90;;;10.00;99.90;;;;;;5091258;28;20434;-72
2023/05/07 03:00:46;;;;;;;1999.90;999.90;;;10.10;99.90;;;;;;5089895;28;20430;-72
2023/05/07 03:03:12;;;;;;;1999.90;999.90;;;10.00;99.90;;;;;;5089533;28;20785;-71
2023/05/07 03:05:41;;;;;;;1999.90;999.90;;;10.00;99.90;;;;;;5089887;28;20813;-70
2023/05/07 03:08:08;;;;;;;1999.90;999.90;;;10.00;99.90;;;;;;5083310;28;20437;-71
2023/05/07 03:10:34;;;;;;;1999.90;999.90;;;9.90;99.90;;;;;;5090740;28;20430;-72
2023/05/07 03:13:02;;;;;;;1999.90;999.90;;;9.90;99.90;;;;;;5088687;28;20437;-72
2023/05/07 03:15:28;;;;;;;1999.90;999.90;;;9.90;99.90;;;;;;5088685;28;20916;-71
2023/05/07 03:17:55;;;;;;;1999.90;999.90;;;10.00;99.90;;;;;;5089803;28;20839;-72
2023/05/07 03:20:22;;;;;;;1999.90;999.90;;;10.00;99.90;;;;;;5090826;28;20426;-72
2023/05/07 03:22:49;;;;;;;1999.90;999.90;;;10.00;99.90;;;;;;5090936;28;20549;-71
2023/05/07 03:25:16;;;;;;;1999.90;999.90;;;10.00;99.90;;;;;;5088922;28;20471;-71
2023/05/07 03:27:43;;;;;;;1999.90;999.90;;;9.90;99.90;;;;;;5090376;28;20437;-73
2023/05/07 03:30:11;;;;;;;1999.90;999.90;;;9.80;99.90;;;;;;5089955;28;21002;-72
2023/05/07 03:32:37;;;;;;;1999.90;999.90;;;9.80;99.90;;;;;;5089605;28;20506;-71
2023/05/07 03:35:05;;;;;;;1999.90;999.90;;;9.70;99.90;;;;;;5089719;28;20483;-71
2023/05/07 03:37:31;;;;;;;1999.90;999.90;;;9.60;99.90;;;;;;5090244;28;20439;-72
2023/05/07 03:39:59;;;;;;;1999.90;999.90;;;9.50;99.90;;;;;;5089259;28;20841;-74
2023/05/07 03:42:26;;;;;;;1999.90;999.90;;;9.50;99.90;;;;;;5088991;28;20437;-74
2023/05/07 03:44:53;;;;;;;1999.90;999.90;;;9.40;99.90;;;;;;5087282;28;20475;-73
2023/05/07 03:47:19;;;;;;;1999.90;999.90;;;9.30;99.90;;;;;;5088758;28;20921;-71
2023/05/07 03:49:46;;;;;;;1999.90;999.90;;;9.40;99.90;;;;;;5090023;28;20482;-74
2023/05/07 03:52:12;;;;;;;1999.90;999.90;;;9.40;99.90;;;;;;5090046;28;20429;-73
2023/05/07 03:54:39;;;;;;;1999.90;999.90;;;9.40;99.90;;;;;;5089348;28;20433;-72
2023/05/07 03:57:07;;;;;;;1999.90;999.90;;;9.50;99.90;;;;;;5088828;28;20875;-73
2023/05/07 03:59:34;;;;;;;1999.90;999.90;;;9.50;99.90;;;;;;5088899;28;20425;-73
2023/05/07 04:02:00;;;;;;;1999.90;999.90;;;9.40;99.90;;;;;;5089975;28;20430;-73
2023/05/07 04:04:27;;;;;;;1999.90;999.90;;;9.50;99.90;;;;;;5089871;28;20423;-73
2023/05/07 04:06:54;;;;;;;1999.90;999.90;;;9.60;99.90;;;;;;5089099;28;20479;-72
2023/05/07 04:09:20;;;;;;;1999.90;999.90;;;9.50;99.90;;;;;;5088711;28;20781;-74
2023/05/07 04:11:47;;;;;;;1999.90;999.90;;;9.50;99.90;;;;;;5088748;28;20480;-72
2023/05/07 04:14:15;;;;;;;1999.90;999.90;;;9.50;99.90;;;;;;5090277;28;20422;-74
2023/05/07 04:16:41;;;;;;;1999.90;999.90;;;9.40;99.90;;;;;;5089078;28;21057;-73
2023/05/07 04:19:08;;;;;;;1999.90;999.90;;;9.30;99.90;;;;;;5083141;28;20418;-72
2023/05/07 04:21:35;;;;;;;1999.90;999.90;;;9.40;99.90;;;;;;5088201;28;20429;-73
2023/05/07 04:24:01;;;;;;;1999.90;999.90;;;9.40;99.90;;;;;;5088512;28;20430;-73
2023/05/07 04:26:28;;;;;;;1999.90;999.90;;;9.40;99.90;;;;;;5088913;28;20446;-72
2023/05/07 04:28:54;;;;;;;1999.90;999.90;;;9.50;99.90;;;;;;5087874;28;20490;-74
2023/05/07 04:31:22;;;;;;;1999.90;999.90;;;9.50;99.90;;;;;;5085443;28;20426;-74
2023/05/07 04:33:50;;;;;;;1999.90;999.90;;;9.60;99.90;;;;;;5088472;28;20781;-73
2023/05/07 04:36:17;;;;;;;1999.90;999.90;;;9.50;99.90;;;;;;5089342;28;20808;-73
2023/05/07 04:38:44;;;;;;;1999.90;999.90;;;9.40;99.90;;;;;;5088520;28;20430;-73
2023/05/07 04:41:13;;;;;;;1999.90;999.90;;;9.50;99.90;;;;;;5088429;28;20425;-73
2023/05/07 04:43:41;;;;;;;1999.90;999.90;;;9.50;99.90;;;;;;5089340;28;20483;-73
2023/05/07 04:46:08;;;;;;;1999.90;999.90;;;9.60;99.90;;;;;;5089070;28;20915;-73
2023/05/07 04:48:36;;;;;;;1999.90;999.90;;;9.50;99.90;;;;;;5089114;28;20430;-73
2023/05/07 04:51:02;;;;;;;1999.90;999.90;;;9.50;99.90;;;;;;5085622;28;20435;-73
2023/05/07 04:53:29;;;;;;;1999.90;999.90;;;9.50;99.90;;;;;;5088895;28;20433;-72
2023/05/07 04:55:57;;;;;;;1999.90;999.90;;;9.60;99.90;;;;;;5089027;28;20477;-72
2023/05/07 04:58:24;;;;;;;1999.90;999.90;;;9.60;99.90;;;;;;5088862;28;20792;-71
2023/05/07 05:00:51;;;;;;;1999.90;999.90;;;9.60;99.90;;;;;;5088051;28;20515;-72
2023/05/07 05:03:18;;;;;;;1999.90;999.90;;;9.60;99.90;;;;;;5088823;28;20439;-72
2023/05/07 05:05:46;;;;;;;1999.90;999.90;;;9.70;99.90;;;;;;5087725;28;20455;-72
2023/05/07 05:08:12;;;;;;;1999.90;999.90;;;9.60;99.90;;;;;;5088912;28;20450;-72
2023/05/07 05:10:40;;;;;;;1999.90;999.90;;;9.60;99.90;;;;;;5087702;28;20430;-72
2023/05/07 05:13:07;;;;;;;1999.90;999.90;;;9.70;99.90;;;;;;5088685;28;20437;-74
2023/05/07 05:15:34;;;;;;;1999.90;999.90;;;9.60;99.90;;;;;;5088699;28;20429;-74
2023/05/07 05:18:01;;;;;;;1999.90;999.90;;;9.50;99.90;;;;;;5088463;28;20804;-74
2023/05/07 05:20:27;;;;;;;1999.90;999.90;;;9.50;99.90;;;;;;5087327;28;20511;-74
2023/05/07 05:22:55;;;;;;;1999.90;999.90;;;9.50;99.90;;;;;;5086474;28;20478;-73
2023/05/07 05:25:22;;;;;;;1999.90;999.90;;;9.60;99.90;;;;;;5083625;28;20422;-74
2023/05/07 05:27:49;;;;;;;1999.90;999.90;;;9.50;99.90;;;;;;5088569;28;20438;-71
2023/05/07 05:30:15;;;;;;;1999.90;999.90;;;9.60;99.90;;;;;;5087762;28;20491;-70
2023/05/07 05:32:42;;;;;;;1999.90;999.90;;;9.60;99.90;;;;;;5086665;28;20429;-73
2023/05/07 05:35:09;;;;;;;1999.90;999.90;;;9.60;99.90;;;;;;5086231;28;20920;-73
2023/05/07 05:37:36;;;;;;;1999.90;999.90;;;9.80;99.90;;;;;;5088528;28;20487;-73
2023/05/07 05:40:05;;;;;;;1999.90;999.90;;;9.90;99.90;;;;;;5087531;28;20429;-72
2023/05/07 05:42:31;;;;;;;1999.90;999.90;;;9.90;99.90;;;;;;5087119;28;20433;-72
2023/05/07 05:44:58;;;;;;;1999.90;999.90;;;9.80;99.90;;;;;;5087197;28;20430;-73
2023/05/07 05:47:24;;;;;;;1999.90;999.90;;;9.70;99.90;;;;;;5089212;28;20479;-73
2023/05/07 05:49:51;;;;;;;1999.90;999.90;;;9.70;99.90;;;;;;5087700;28;20445;-74
2023/05/07 05:52:18;;;;;;;1999.90;999.90;;;9.70;99.90;;;;;;5087262;28;20540;-72
2023/05/07 05:54:44;;;;;;;1999.90;999.90;;;9.90;99.90;;;;;;5088246;28;20943;-73
2023/05/07 05:57:12;;;;;;;1999.90;999.90;;;9.90;99.90;;;;;;5088048;28;20931;-72
2023/05/07 05:59:39;;;;;;;1999.90;999.90;;;10.10;99.90;;;;;;5088145;28;20433;-71
2023/05/07 06:02:06;;;;;;;1999.90;999.90;;;10.20;99.90;;;;;;5087338;28;20429;-74
2023/05/07 06:04:32;;;;;;;1999.90;999.90;;;10.00;99.90;;;;;;5088103;28;20430;-73
2023/05/07 06:06:59;;;;;;;1999.90;999.90;;;10.10;99.90;;;;;;5088182;28;20861;-72
2023/05/07 06:09:26;;;;;;;1999.90;999.90;;;10.20;99.90;;;;;;5087970;28;20429;-73
2023/05/07 06:11:52;;;;;;;1999.90;999.90;;;10.30;99.90;;;;;;5087361;28;20795;-73
2023/05/07 06:14:20;;;;;;;1999.90;999.90;;;10.20;99.90;;;;;;5086573;28;20838;-73
2023/05/07 06:16:47;;;;;;;1999.90;999.90;;;10.20;99.90;;;;;;5087344;28;20433;-72
2023/05/07 06:19:13;;;;;;;1999.90;999.90;;;10.10;99.90;;;;;;5087770;28;20514;-72
2023/05/07 06:21:41;;;;;;;1999.90;999.90;;;10.00;99.90;;;;;;5087981;28;20430;-72
2023/05/07 06:24:08;;;;;;;1999.90;999.90;;;10.00;99.90;;;;;;5086819;28;20879;-72
2023/05/07 06:26:34;;;;;;;1999.90;999.90;;;10.10;99.90;;;;;;5085857;28;20923;-72
2023/05/07 06:29:01;;;;;;;1999.90;999.90;;;10.20;99.90;;;;;;5086865;28;20434;-71
2023/05/07 06:31:31;;;;;;;1999.90;999.90;;;10.30;99.90;;;;;;5085316;28;20471;-74
2023/05/07 06:33:58;;;;;;;1999.90;999.90;;;10.20;99.90;;;;;;5088371;28;20522;-74
2023/05/07 06:36:26;;;;;;;1999.90;999.90;;;10.20;99.90;;;;;;5088037;28;20426;-75
2023/05/07 06:38:52;;;;;;;1999.90;999.90;;;10.00;99.90;;;;;;5085086;28;20433;-71
2023/05/07 06:41:20;;;;;;;1999.90;999.90;;;10.10;99.90;;;;;;5085443;28;20438;-72
2023/05/07 06:43:46;;;;;;;1999.90;999.90;;;10.20;99.90;;;;;;5087782;28;20430;-74
2023/05/07 06:46:13;;;;;;;1999.90;999.90;;;10.10;99.90;;;;;;5086647;28;20915;-72
2023/05/07 06:48:41;;;;;;;1999.90;999.90;;;10.20;99.90;;;;;;5087547;28;20430;-72
2023/05/07 06:51:08;;;;;;;1999.90;999.90;;;10.20;99.90;;;;;;5085549;28;20915;-71
2023/05/07 06:53:35;;;;;;;1999.90;999.90;;;10.20;99.90;;;;;;5087874;28;20486;-72
2023/05/07 06:56:02;;;;;;;1999.90;999.90;;;10.30;99.90;;;;;;5089953;28;20433;-74
2023/05/07 06:58:29;;;;;;;1999.90;999.90;;;10.20;99.90;;;;;;5091373;28;20436;-74
2023/05/07 07:00:55;;;;;;;1999.90;999.90;;;10.10;99.90;;;;;;5091406;28;20432;-75
2023/05/07 07:03:22;;;;;;;1999.90;999.90;;;10.10;99.90;;;;;;5091266;28;20430;-72
2023/05/07 07:05:52;;;;;;;1999.90;999.90;;;10.20;99.90;;;;;;5089318;28;20430;-70
2023/05/07 07:08:21;;;;;;;1999.90;999.90;;;10.30;99.90;;;;;;5091042;28;20430;-73
2023/05/07 07:10:47;;;;;;;1999.90;999.90;;;10.30;99.90;;;;;;5090172;28;20426;-72
2023/05/07 07:13:14;;;;;;;1999.90;999.90;;;10.40;99.90;;;;;;5090103;28;20442;-73
2023/05/07 07:15:41;;;;;;;1999.90;999.90;;;10.50;99.90;;;;;;5085664;28;20436;-72
2023/05/07 07:18:07;;;;;;;1999.90;999.90;;;10.50;99.90;;;;;;5088932;28;20479;-72
2023/05/07 07:20:34;;;;;;;1999.90;999.90;;;10.50;99.90;;;;;;5090992;28;20463;-72
2023/05/07 07:23:02;;;;;;;1999.90;999.90;;;10.60;99.90;;;;;;5085837;28;20429;-71
2023/05/07 07:25:29;;;;;;;1999.90;999.90;;;10.50;99.90;;;;;;5090128;28;20479;-73
2023/05/07 07:27:55;;;;;;;1999.90;999.90;;;10.50;99.90;;;;;;5090579;28;20477;-72
2023/05/07 07:30:22;;;;;;;1999.90;999.90;;;10.70;99.90;;;;;;5090306;28;20457;-72
2023/05/07 07:32:49;;;;;;;1999.90;999.90;;;10.60;99.90;;;;;;5085776;28;20849;-74
2023/05/07 07:35:15;;;;;;;1999.90;999.90;;;10.60;99.90;;;;;;5090422;28;20426;-72
2023/05/07 07:37:42;;;;;;;1999.90;999.90;;;10.50;99.90;;;;;;5087858;28;20503;-73
2023/05/07 07:40:12;;;;;;;1999.90;999.90;;;10.50;99.90;;;;;;5083635;28;20433;-72
2023/05/07 07:42:39;;;;;;;1999.90;999.90;;;10.50;99.90;;;;;;5081840;28;20942;-70
2023/05/07 07:45:07;;;;;;;1999.90;999.90;;;10.50;99.90;;;;;;5087650;28;20426;-73
2023/05/07 07:47:33;;;;;;;1999.90;999.90;;;10.50;99.90;;;;;;5087223;28;20494;-73
2023/05/07 07:50:00;;;;;;;1999.90;999.90;;;10.50;99.90;;;;;;5086468;28;20520;-69
2023/05/07 07:52:27;;;;;;;1999.90;999.90;;;10.60;99.90;;;;;;5081154;28;20481;-73
2023/05/07 07:54:53;;;;;;;1999.90;999.90;;;10.70;99.90;;;;;;5088534;28;20475;-72
2023/05/07 07:57:21;;;;;;;1999.90;999.90;;;10.60;99.90;;;;;;5084436;28;20514;-71
2023/05/07 07:59:48;;;;;;;1999.90;999.90;;;10.70;99.90;;;;;;5086787;28;20907;-70
2023/05/07 08:02:14;;;;;;;1999.90;999.90;;;10.70;99.90;;;;;;5087898;28;20437;-72
2023/05/07 08:04:43;;;;;;;1999.90;999.90;;;11.00;99.90;;;;;;5086474;28;20445;-73
2023/05/07 08:07:09;;;;;;;1999.90;999.90;;;11.00;99.90;;;;;;5087313;28;20430;-73
2023/05/07 08:09:36;;;;;;;1999.90;999.90;;;11.00;99.90;;;;;;5086374;28;20438;-72
2023/05/07 08:12:03;;;;;;;1999.90;999.90;;;11.20;99.90;;;;;;5085028;28;20769;-73
2023/05/07 08:14:31;;;;;;;1999.90;999.90;;;11.30;99.90;;;;;;5085569;28;20475;-73
2023/05/07 08:16:58;;;;;;;1999.90;999.90;;;11.20;99.90;;;;;;5086289;28;20430;-70
2023/05/07 08:19:25;;;;;;;1999.90;999.90;;;11.30;99.90;;;;;;5088009;28;20425;-70
2023/05/07 08:21:51;;;;;;;1999.90;999.90;;;11.30;99.90;;;;;;5085977;28;20947;-73
2023/05/07 08:24:19;;;;;;;1999.90;999.90;;;11.20;99.90;;;;;;5088504;28;20465;-73
2023/05/07 08:26:45;;;;;;;1999.90;999.90;;;11.20;99.90;;;;;;5083980;28;20432;-70
2023/05/07 08:29:12;;;;;;;1999.90;999.90;;;11.40;99.90;;;;;;5088144;28;20491;-72
2023/05/07 08:31:40;;;;;;;1999.90;999.90;;;11.30;99.90;;;;;;5082998;28;20426;-73
2023/05/07 08:34:07;;;;;;;1999.90;999.90;;;11.10;99.90;;;;;;5091407;28;20883;-69
2023/05/07 08:36:34;;;;;;;1999.90;999.90;;;11.00;99.90;;;;;;5091807;28;20497;-70
2023/05/07 08:39:00;;;;;;;1999.90;999.90;;;11.00;99.90;;;;;;5098983;28;20479;-73
2023/05/07 08:41:27;;;;;;;1999.90;999.90;;;11.10;99.90;;;;;;5112225;28;20412;-71
2023/05/07 08:43:58;;;;;;;1999.90;999.90;;;11.10;99.90;;;;;;5111883;28;20461;-73
2023/05/07 08:46:26;;;;;;;1999.90;999.90;;;11.10;99.90;;;;;;5111723;28;20466;-73
2023/05/07 08:48:54;;;;;;;1999.90;999.90;;;11.30;99.90;;;;;;5100065;28;20502;-73
2023/05/07 08:51:22;;;;;;;1999.90;999.90;;;11.30;99.90;;;;;;5111320;28;21122;-72
2023/05/07 08:53:50;;;;;;;1999.90;999.90;;;11.30;99.90;;;;;;5100869;28;20434;-73
2023/05/07 08:56:17;;;;;;;1999.90;999.90;;;11.20;99.90;;;;;;5085630;28;20931;-72
2023/05/07 08:58:44;;;;;;;1999.90;999.90;;;11.30;99.90;;;;;;5086220;28;20430;-74
2023/05/07 09:01:14;;;;;;;1999.90;999.90;;;11.20;99.90;;;;;;5087409;28;20805;-74
2023/05/07 09:03:42;;;;;;;1999.90;999.90;;;11.20;99.90;;;;;;5085662;28;20429;-73
2023/05/07 09:06:10;;;;;;;1999.90;999.90;;;11.20;99.90;;;;;;5087539;28;20471;-73
2023/05/07 09:08:37;;;;;;;1999.90;999.90;;;11.20;99.90;;;;;;5088575;28;20434;-73
2023/05/07 09:11:04;;;;;;;1999.90;999.90;;;11.40;99.90;;;;;;5085242;28;20429;-72
2023/05/07 09:13:31;;;;;;;1999.90;999.90;;;11.20;99.90;;;;;;5080683;28;20487;-73
2023/05/07 09:15:58;;;;;;;1999.90;999.90;;;11.20;99.90;;;;;;5090796;28;20418;-73
2023/05/07 09:18:25;;;;;;;1999.90;999.90;;;11.10;99.90;;;;;;5089044;28;20479;-73
2023/05/07 09:20:52;;;;;;;1999.90;999.90;;;11.20;99.90;;;;;;5086128;28;20455;-71
2023/05/07 09:23:21;;;;;;;1999.90;999.90;;;11.30;99.90;;;;;;5090462;28;20417;-72
2023/05/07 09:25:47;;;;;;;1999.90;999.90;;;11.40;99.90;;;;;;5090674;28;20422;-73
2023/05/07 09:28:14;;;;;;;1999.90;999.90;;;11.60;99.90;;;;;;5090436;28;20413;-73
2023/05/07 09:30:41;;;;;;;1999.90;999.90;;;11.60;99.90;;;;;;5087850;28;20426;-73
2023/05/07 09:33:07;;;;;;;1999.90;999.90;;;11.60;99.90;;;;;;5099622;28;20468;-70
2023/05/07 09:35:34;;;;;;;1999.90;999.90;;;11.30;99.90;;;;;;5111211;28;20479;-73
2023/05/07 09:38:02;;;;;;;1999.90;999.90;;;11.30;99.90;;;;;;5110846;28;20885;-70
2023/05/07 09:40:31;;;;;;;1999.90;999.90;;;11.40;99.90;;;;;;5104306;28;20432;-71
2023/05/07 09:43:10;;;;;;;1999.90;999.90;;;11.30;99.90;;;;;;5092991;28;20439;-76
2023/05/07 09:45:38;;;;;;;1999.90;999.90;;;11.20;99.90;;;;;;5083091;28;20430;-71
2023/05/07 09:48:06;;;;;;;1999.90;999.90;;;11.20;99.90;;;;;;5089175;28;20425;-73
2023/05/07 09:50:37;;;;;;;1999.90;999.90;;;11.20;99.90;;;;;;5089093;28;20438;-73
2023/05/07 09:53:05;;;;;;;1999.90;999.90;;;11.30;99.90;;;;;;5098676;28;20460;-69
2023/05/07 09:55:33;;;;;;;1999.90;999.90;;;11.40;99.90;;;;;;5110818;28;20879;-73
2023/05/07 09:58:02;;;;;;;1999.90;999.90;;;11.40;99.90;;;;;;5110647;28;20405;-73
2023/05/07 10:00:29;;;;;;;1999.90;999.90;;;11.50;99.90;;;;;;5083261;28;20426;-73
2023/05/07 10:02:58;;;;;;;1999.90;999.90;;;11.70;99.90;;;;;;5090207;28;20490;-72
2023/05/07 10:05:25;;;;;;;1999.90;999.90;;;11.90;99.90;;;;;;5090179;28;20547;-73
2023/05/07 10:07:53;;;;;;;1999.90;999.90;;;11.70;99.90;;;;;;5090229;28;20414;-73
2023/05/07 10:10:20;;;;;;;1999.90;999.90;;;11.80;99.90;;;;;;5088934;28;20425;-73
2023/05/07 10:12:49;;;;;;;1999.90;999.90;;;12.00;99.90;;;;;;5102694;28;20477;-71
2023/05/07 10:15:16;;;;;;;1999.90;999.90;;;12.00;99.90;;;;;;5101985;28;20412;-73
2023/05/07 10:17:43;;;;;;;1999.90;999.90;;;11.90;99.90;;;;;;5110326;28;20438;-73
2023/05/07 10:20:11;;;;;;;1999.90;999.90;;;11.90;99.90;;;;;;5105236;28;20429;-69
2023/05/07 10:22:42;;;;;;;1999.90;999.90;;;12.00;99.90;;;;;;5101928;28;20875;-72
2023/05/07 10:25:15;;;;;;;1999.90;999.90;;;12.00;99.90;;;;;;5110686;28;20418;-72
2023/05/07 10:27:44;;;;;;;1999.90;999.90;;;12.20;99.90;;;;;;5109083;28;20404;-70
2023/05/07 10:30:21;;;;;;;1999.90;999.90;;;12.10;99.90;;;;;;5108761;28;20421;-73
2023/05/07 10:32:51;;;;;;;1999.90;999.90;;;12.40;99.90;;;;;;5104063;28;20477;-73
2023/05/07 10:35:31;;;;;;;1999.90;999.90;;;12.40;99.90;;;;;;5112596;28;20408;-73
2023/05/07 10:37:58;;;;;;;1999.90;999.90;;;12.20;99.90;;;;;;5112655;28;20962;-73
2023/05/07 10:40:25;;;;;;;1999.90;999.90;;;12.10;99.90;;;;;;5108707;28;20512;-73
2023/05/07 10:42:56;;;;;;;1999.90;999.90;;;11.90;99.90;;;;;;5103973;28;20420;-71
2023/05/07 10:45:26;;;;;;;1999.90;999.90;;;11.90;99.90;;;;;;5112759;28;20439;-73
2023/05/07 10:48:12;;;;;;;1999.90;999.90;;;12.00;99.90;;;;;;5109821;28;20412;-72
2023/05/07 10:50:40;;;;;;;1999.90;999.90;;;12.40;99.90;;;;;;5089173;28;20478;-69
2023/05/07 10:53:25;;;;;;;1999.90;999.90;;;12.30;99.90;;;;;;5088787;28;20429;-70
2023/05/07 10:56:13;;;;;;;1999.90;999.90;;;12.40;99.90;;;;;;5093418;28;20456;-70
2023/05/07 10:58:39;;;;;;;1999.90;999.90;;;12.30;99.90;;;;;;5086142;28;20417;-72
2023/05/07 11:01:07;;;;;;;1999.90;999.90;;;12.40;99.90;;;;;;5093525;28;20410;-73
2023/05/07 11:03:34;;;;;;;1999.90;999.90;;;12.30;99.90;;;;;;5082902;28;20487;-71
2023/05/07 11:06:12;;;;;;;1999.90;999.90;;;12.00;99.90;;;;;;5085680;28;20426;-72
2023/05/07 11:08:55;;;;;;;1999.90;999.90;;;12.20;99.90;;;;;;5091408;28;20438;-71
2023/05/07 11:11:45;;;;;;;1999.90;999.90;;;12.40;99.90;;;;;;5090680;28;20461;-71
2023/05/07 11:14:12;;;;;;;1999.90;999.90;;;12.60;99.90;;;;;;5089603;28;20483;-72
2023/05/07 11:16:42;;;;;;;1999.90;999.90;;;12.50;99.90;;;;;;5089165;28;20433;-72
2023/05/07 11:19:09;;;;;;;1999.90;999.90;;;12.60;99.90;;;;;;5091019;28;20424;-71
2023/05/07 11:21:37;;;;;;;1999.90;999.90;;;12.60;99.90;;;;;;5091310;28;20918;-72
2023/05/07 11:24:05;;;;;;;1999.90;999.90;;;12.70;99.90;;;;;;5091253;28;20515;-72
2023/05/07 11:26:43;;;;;;;1999.90;999.90;;;12.90;99.90;;;;;;5087663;28;20421;-72
2023/05/07 11:29:12;;;;;;;1999.90;999.90;;;12.90;99.90;;;;;;5086654;28;20505;-72
2023/05/07 11:31:41;;;;;;;1999.90;999.90;;;13.10;99.90;;;;;;5091152;28;20838;-72
2023/05/07 11:34:09;;;;;;;1999.90;999.90;;;13.00;99.90;;;;;;5088720;28;20777;-72
2023/05/07 11:36:36;;;;;;;1999.90;999.90;;;12.90;99.90;;;;;;5086172;28;20520;-72
2023/05/07 11:39:03;;;;;;;1999.90;999.90;;;12.90;99.90;;;;;;5087896;28;20854;-73
2023/05/07 11:41:36;;;;;;;1999.90;999.90;;;13.10;99.90;;;;;;5087398;28;20438;-72
2023/05/07 11:44:03;;;;;;;1999.90;999.90;;;13.00;99.90;;;;;;5087158;28;20522;-72
2023/05/07 11:46:32;;;;;;;1999.90;999.90;;;12.80;99.90;;;;;;5087763;28;22448;-72
2023/05/07 11:49:01;;;;;;;1999.90;999.90;;;12.80;99.90;;;;;;5091607;28;20495;-71
2023/05/07 11:51:28;;;;;;;1999.90;999.90;;;12.70;99.90;;;;;;5092424;28;20414;-71
2023/05/07 11:53:55;;;;;;;1999.90;999.90;;;12.70;99.90;;;;;;5097785;28;20427;-70
2023/05/07 11:56:21;;;;;;;1999.90;999.90;;;12.80;99.90;;;;;;5104329;28;20959;-74
2023/05/07 11:58:50;;;;;;;1999.90;999.90;;;13.00;99.90;;;;;;5112734;28;20839;-74
2023/05/07 12:01:18;;;;;;;1999.90;999.90;;;12.90;99.90;;;;;;5112752;28;20812;-71
2023/05/07 12:03:46;;;;;;;1999.90;999.90;;;13.00;99.90;;;;;;5106119;28;20794;-71